Time;durP1;ratioP1;P1;durP2;ratioP2;P2;SDS_P1;SDS_P2;PMS_P1;PMS_P2;Temp;Humidity;BMP_temperature;BMP_pressure;BME280_temperature;BME280_humidity;BME280_pressure;Samples;Min_cycle;Max_cycle;Signal;HPM_P1;HPM_P2
2022/08/31 00:04:40;;;;;;;;;;;;;;;22.32;45.27;99916.41;1088584;46;19969;-82
2022/08/31 00:05:42;;;;;;;;;;;;;;;22.33;45.22;99913.50;1088714;39;20621;-81
2022/08/31 00:06:45;;;;;;;;;;;;;;;22.34;45.44;99909.69;1087683;54;20718;-81
2022/08/31 00:07:46;;;;;;;;;;;;;;;22.34;45.25;99914.31;1088252;54;19949;-81
2022/08/31 00:08:53;;;;;;;;;;;;;;;22.32;45.71;99917.25;1088243;54;19942;-82
2022/08/31 00:09:54;;;;;;;;;;;;;;;22.32;45.47;99916.41;1088222;54;19946;-79
2022/08/31 00:10:58;;;;;;;;;;;;;;;22.35;45.58;99921.41;1088181;54;19946;-81
2022/08/31 00:12:02;;;;;;;;;;;;;;;22.37;45.50;99916.59;1088056;54;19947;-82
2022/08/31 00:13:04;;;;;;;;;;;;;;;22.37;45.65;99922.03;1088137;54;19999;-81
2022/08/31 00:14:09;;;;;;;;;;;;;;;22.39;45.23;99922.63;1088163;54;19950;-82
2022/08/31 00:15:11;;;;;;;;;;;;;;;22.45;44.89;99921.75;1088196;54;19927;-82
2022/08/31 00:16:15;;;;;;;;;;;;;;;22.48;45.12;99921.31;1088414;54;19938;-82
2022/08/31 00:17:16;;;;;;;;;;;;;;;22.49;44.93;99917.50;1091956;46;19922;-81
2022/08/31 00:18:20;;;;;;;;;;;;;;;22.48;45.53;99920.47;1088373;54;19966;-82
2022/08/31 00:19:22;;;;;;;;;;;;;;;22.51;45.35;99915.41;1088263;54;19943;-80
2022/08/31 00:20:26;;;;;;;;;;;;;;;22.52;45.13;99911.63;1088167;54;19942;-80
2022/08/31 00:21:30;;;;;;;;;;;;;;;22.55;45.24;99910.31;1088233;54;19943;-81
2022/08/31 00:22:31;;;;;;;;;;;;;;;22.55;45.24;99913.91;1088223;54;19942;-82
2022/08/31 00:23:35;;;;;;;;;;;;;;;22.54;45.69;99914.97;1088171;54;19949;-80
2022/08/31 00:24:39;;;;;;;;;;;;;;;22.48;46.05;99913.16;1088209;54;19949;-80
2022/08/31 00:25:43;;;;;;;;;;;;;;;22.51;45.89;99909.13;1088267;54;19927;-80
2022/08/31 00:26:45;;;;;;;;;;;;;;;22.47;45.95;99914.22;1088198;54;19930;-82
2022/08/31 00:27:48;;;;;;;;;;;;;;;22.41;46.09;99915.09;1088249;54;19935;-81
2022/08/31 00:28:50;;;;;;;;;;;;;;;22.41;46.09;99915.09;1088239;54;19949;-80
2022/08/31 00:29:54;;;;;;;;;;;;;;;22.35;46.45;99910.53;1088185;54;19942;-82
2022/08/31 00:30:55;;;;;;;;;;;;;;;22.35;46.44;99918.69;1088271;54;19942;-80
2022/08/31 00:31:59;;;;;;;;;;;;;;;22.38;45.98;99913.63;1088208;54;19998;-81
2022/08/31 00:33:01;;;;;;;;;;;;;;;22.36;46.41;99913.00;1088204;54;19942;-82
2022/08/31 00:34:05;;;;;;;;;;;;;;;22.36;46.42;99912.19;1088156;54;19939;-82
2022/08/31 00:35:07;;;;;;;;;;;;;;;22.39;46.12;99917.16;1088139;54;19943;-81
2022/08/31 00:36:12;;;;;;;;;;;;;;;22.36;46.27;99918.47;1088268;54;19927;-80
2022/08/31 00:37:13;;;;;;;;;;;;;;;22.36;46.47;99910.28;1088217;54;19942;-82
2022/08/31 00:38:17;;;;;;;;;;;;;;;22.38;45.98;99912.81;1091389;39;20729;-82
2022/08/31 00:39:19;;;;;;;;;;;;;;;22.38;46.28;99916.34;1088215;54;19926;-81
2022/08/31 00:40:26;;;;;;;;;;;;;;;22.34;46.73;99908.88;1088123;54;19946;-81
2022/08/31 00:41:29;;;;;;;;;;;;;;;22.31;46.61;99914.75;1088221;54;19954;-79
2022/08/31 00:42:36;;;;;;;;;;;;;;;22.34;46.52;99915.13;1088172;54;19942;-81
2022/08/31 00:43:40;;;;;;;;;;;;;;;22.33;46.40;99915.34;1088190;54;19942;-82
2022/08/31 00:44:44;;;;;;;;;;;;;;;22.33;46.41;99913.50;1088222;54;19943;-82
2022/08/31 00:45:45;;;;;;;;;;;;;;;22.31;46.66;99912.03;1088252;54;19942;-81
2022/08/31 00:46:49;;;;;;;;;;;;;;;22.34;46.32;99917.03;1088121;54;19939;-81
2022/08/31 00:47:50;;;;;;;;;;;;;;;22.35;46.13;99914.06;1088202;54;19949;-82
2022/08/31 00:48:57;;;;;;;;;;;;;;;22.39;46.36;99917.16;1088209;54;19938;-81
2022/08/31 00:49:59;;;;;;;;;;;;;;;22.34;46.48;99922.47;1088247;54;19933;-81
2022/08/31 00:51:03;;;;;;;;;;;;;;;22.23;46.68;99929.50;1088988;46;19981;-82
2022/08/31 00:52:08;;;;;;;;;;;;;;;22.04;47.74;99937.63;1089753;46;19994;-77
2022/08/31 00:53:12;;;;;;;;;;;;;;;21.94;47.66;99946.28;1088267;46;19927;-81
2022/08/31 00:54:18;;;;;;;;;;;;;;;21.94;47.91;99946.28;1089235;39;20609;-81
2022/08/31 00:55:20;;;;;;;;;;;;;;;21.88;48.41;99949.06;1090057;39;20808;-79
2022/08/31 00:56:30;;;;;;;;;;;;;;;21.83;48.43;99952.44;1088177;54;19989;-80
2022/08/31 00:57:33;;;;;;;;;;;;;;;21.79;48.76;99957.50;1088138;54;20705;-79
2022/08/31 00:58:37;;;;;;;;;;;;;;;21.87;48.18;99955.59;1088143;54;19954;-81
2022/08/31 00:59:39;;;;;;;;;;;;;;;21.79;48.65;99956.69;1088191;54;19949;-80
2022/08/31 01:00:44;;;;;;;;;;;;;;;21.84;48.56;99953.28;1088124;54;19942;-80
2022/08/31 01:01:45;;;;;;;;;;;;;;;21.83;48.46;99955.16;1088130;54;19927;-82
2022/08/31 01:02:50;;;;;;;;;;;;;;;21.69;48.78;99957.16;1088112;54;19954;-82
2022/08/31 01:03:51;;;;;;;;;;;;;;;21.75;48.67;99956.28;1088500;39;20502;-81
2022/08/31 01:04:55;;;;;;;;;;;;;;;21.79;48.29;99953.97;1088588;39;20268;-81
2022/08/31 01:05:57;;;;;;;;;;;;;;;21.83;47.99;99951.63;1088177;54;20668;-81
2022/08/31 01:07:01;;;;;;;;;;;;;;;21.74;48.32;99956.50;1088088;54;19943;-78
2022/08/31 01:08:03;;;;;;;;;;;;;;;21.60;48.99;99953.88;1088167;54;19943;-81
2022/08/31 01:09:07;;;;;;;;;;;;;;;21.60;48.96;99956.59;1088143;54;19978;-81
2022/08/31 01:10:09;;;;;;;;;;;;;;;21.56;49.23;99963.50;1088142;54;19949;-80
2022/08/31 01:11:13;;;;;;;;;;;;;;;21.57;49.28;99965.16;1088208;54;19947;-80
2022/08/31 01:12:17;;;;;;;;;;;;;;;21.55;49.31;99966.44;1088241;54;19943;-81
2022/08/31 01:13:22;;;;;;;;;;;;;;;21.64;49.20;99962.44;1088158;54;20677;-82
2022/08/31 01:14:23;;;;;;;;;;;;;;;21.73;48.47;99961.13;1088240;54;19935;-82
2022/08/31 01:15:28;;;;;;;;;;;;;;;21.81;48.27;99958.13;1088140;54;19949;-81
2022/08/31 01:16:33;;;;;;;;;;;;;;;21.83;48.33;99947.00;1088157;54;19942;-81
2022/08/31 01:17:37;;;;;;;;;;;;;;;21.81;48.37;99952.69;1088203;54;19927;-80
2022/08/31 01:18:39;;;;;;;;;;;;;;;21.77;48.83;99951.44;1088089;54;19973;-81
2022/08/31 01:19:45;;;;;;;;;;;;;;;21.74;48.83;99943.75;1088188;54;20811;-80
2022/08/31 01:20:53;;;;;;;;;;;;;;;21.72;48.60;99939.59;1088066;54;21103;-81
2022/08/31 01:22:00;;;;;;;;;;;;;;;21.72;48.60;99945.84;1088155;54;20657;-82
2022/08/31 01:23:10;;;;;;;;;;;;;;;21.77;48.54;99942.47;1088174;54;19934;-80
2022/08/31 01:24:14;;;;;;;;;;;;;;;21.75;48.64;99956.28;1088152;54;19972;-82
2022/08/31 01:25:15;;;;;;;;;;;;;;;21.73;48.99;99944.78;1088158;54;20607;-81
2022/08/31 01:26:20;;;;;;;;;;;;;;;21.68;48.95;99946.50;1088053;54;19950;-81
2022/08/31 01:27:22;;;;;;;;;;;;;;;21.65;49.51;99948.59;1091609;39;20612;-81
2022/08/31 01:28:26;;;;;;;;;;;;;;;21.68;49.26;99949.22;1088111;54;19942;-81
2022/08/31 01:29:27;;;;;;;;;;;;;;;21.66;49.09;99947.56;1088148;54;19943;-81
2022/08/31 01:30:31;;;;;;;;;;;;;;;21.64;49.43;99946.94;1088611;39;20566;-83
2022/08/31 01:31:34;;;;;;;;;;;;;;;21.64;49.86;99946.94;1088156;54;19941;-83
2022/08/31 01:32:38;;;;;;;;;;;;;;;21.65;49.56;99951.31;1088089;54;20632;-81
2022/08/31 01:33:39;;;;;;;;;;;;;;;21.68;49.65;99946.50;1088114;54;19943;-81
2022/08/31 01:34:43;;;;;;;;;;;;;;;21.70;49.33;99941.69;1088098;54;19958;-82
2022/08/31 01:35:44;;;;;;;;;;;;;;;21.70;49.07;99947.13;1088181;54;19934;-81
2022/08/31 01:36:49;;;;;;;;;;;;;;;21.73;49.30;99946.66;1088159;54;19943;-82
2022/08/31 01:37:52;;;;;;;;;;;;;;;21.73;49.08;99947.50;1088117;54;19949;-81
2022/08/31 01:38:58;;;;;;;;;;;;;;;21.77;49.16;99950.63;1088056;54;19931;-81
2022/08/31 01:39:59;;;;;;;;;;;;;;;21.76;49.00;99951.66;1088308;46;19946;-81
2022/08/31 01:41:03;;;;;;;;;;;;;;;21.76;49.04;99951.66;1088160;54;19942;-82
2022/08/31 01:42:08;;;;;;;;;;;;;;;21.79;48.91;99952.06;1088518;39;20505;-82
2022/08/31 01:43:10;;;;;;;;;;;;;;;21.85;48.73;99965.84;1088064;54;19946;-83
2022/08/31 01:44:14;;;;;;;;;;;;;;;21.88;48.45;99959.94;1088655;46;19942;-81
2022/08/31 01:45:16;;;;;;;;;;;;;;;21.88;48.36;99954.50;1088114;54;19966;-81
2022/08/31 01:46:20;;;;;;;;;;;;;;;21.86;48.72;99957.44;1088141;54;19935;-81
2022/08/31 01:47:21;;;;;;;;;;;;;;;21.80;48.85;99956.44;1088065;54;20713;-81
2022/08/31 01:48:25;;;;;;;;;;;;;;;21.74;48.85;99949.19;1088178;54;20026;-82
2022/08/31 01:49:29;;;;;;;;;;;;;;;21.72;49.20;99955.91;1088094;54;19950;-82
2022/08/31 01:50:31;;;;;;;;;;;;;;;21.72;48.84;99961.34;1088083;54;19949;-81
2022/08/31 01:51:35;;;;;;;;;;;;;;;21.75;48.73;99961.72;1088102;54;19943;-83
2022/08/31 01:52:36;;;;;;;;;;;;;;;21.78;48.68;99961.28;1093162;39;20910;-82
2022/08/31 01:53:40;;;;;;;;;;;;;;;21.79;48.56;99964.84;1088167;54;19993;-81
2022/08/31 01:54:47;;;;;;;;;;;;;;;21.77;48.72;99964.22;1088003;54;19942;-82
2022/08/31 01:55:48;;;;;;;;;;;;;;;21.83;48.27;99963.31;1088119;54;19943;-82
2022/08/31 01:56:52;;;;;;;;;;;;;;;21.84;48.80;99958.75;1088054;54;19943;-81
2022/08/31 01:57:53;;;;;;;;;;;;;;;21.80;49.07;99959.16;1088104;54;19950;-82
2022/08/31 01:58:57;;;;;;;;;;;;;;;21.75;48.96;99959.00;1087904;54;19943;-82
2022/08/31 01:59:58;;;;;;;;;;;;;;;21.75;48.75;99963.59;1089408;39;20601;-82
2022/08/31 02:01:02;;;;;;;;;;;;;;;21.73;49.16;99960.25;1087927;54;20680;-81
2022/08/31 02:02:04;;;;;;;;;;;;;;;21.69;49.18;99964.50;1088004;54;19931;-81
2022/08/31 02:03:08;;;;;;;;;;;;;;;21.70;48.99;99964.25;1087494;54;19955;-82
2022/08/31 02:04:11;;;;;;;;;;;;;;;21.74;48.57;99970.09;1087525;54;19995;-83
2022/08/31 02:05:15;;;;;;;;;;;;;;;21.70;49.07;99974.31;1087376;54;19943;-81
2022/08/31 02:06:16;;;;;;;;;;;;;;;21.70;48.70;99977.03;1087557;54;19943;-82
2022/08/31 02:07:20;;;;;;;;;;;;;;;21.73;48.54;99979.31;1087355;54;19943;-81
2022/08/31 02:08:21;;;;;;;;;;;;;;;21.75;48.72;99971.75;1087480;54;19942;-82
2022/08/31 02:09:25;;;;;;;;;;;;;;;21.76;48.58;99970.72;1087579;54;20874;-82
2022/08/31 02:10:29;;;;;;;;;;;;;;;21.80;48.26;99972.78;1087425;54;20042;-82
2022/08/31 02:11:32;;;;;;;;;;;;;;;21.84;48.31;99969.63;1087875;47;19944;-81
2022/08/31 02:12:34;;;;;;;;;;;;;;;21.74;48.87;99970.94;1087905;54;19954;-81
2022/08/31 02:13:38;;;;;;;;;;;;;;;21.73;48.57;99968.44;1087871;54;19949;-80
2022/08/31 02:14:39;;;;;;;;;;;;;;;21.65;48.78;99986.69;1087905;54;19931;-82
2022/08/31 02:15:42;;;;;;;;;;;;;;;21.60;48.99;99975.66;1087928;54;19943;-83
2022/08/31 02:16:44;;;;;;;;;;;;;;;21.63;48.95;99983.34;1087862;54;19952;-82
2022/08/31 02:17:48;;;;;;;;;;;;;;;21.63;49.22;99979.81;1087905;54;19942;-81
2022/08/31 02:18:49;;;;;;;;;;;;;;;21.51;50.19;99979.66;1088405;46;19942;-79
2022/08/31 02:19:53;;;;;;;;;;;;;;;21.44;50.65;99976.13;1087849;54;19950;-80
2022/08/31 02:20:54;;;;;;;;;;;;;;;21.36;51.82;99974.50;1087907;54;19942;-80
2022/08/31 02:21:58;;;;;;;;;;;;;;;21.30;52.15;99978.91;1088827;39;20471;-81
2022/08/31 02:23:02;;;;;;;;;;;;;;;21.28;52.28;99980.19;1091401;39;20581;-82
2022/08/31 02:24:08;;;;;;;;;;;;;;;21.24;53.06;99982.53;1087819;54;19942;-80
2022/08/31 02:25:09;;;;;;;;;;;;;;;21.26;53.28;99977.69;1087810;54;20731;-80
2022/08/31 02:26:16;;;;;;;;;;;;;;;21.26;53.31;99980.41;1087890;54;19943;-81
2022/08/31 02:27:17;;;;;;;;;;;;;;;21.31;53.02;99983.31;1087893;54;19949;-81
2022/08/31 02:28:21;;;;;;;;;;;;;;;21.29;54.00;99977.25;1087830;54;19947;-82
2022/08/31 02:29:22;;;;;;;;;;;;;;;21.25;53.91;99978.75;1087879;54;19943;-83
2022/08/31 02:30:27;;;;;;;;;;;;;;;21.18;55.29;99976.06;1087766;54;20670;-85
2022/08/31 02:31:28;;;;;;;;;;;;;;;21.13;55.37;99978.56;1087810;54;19966;-81
2022/08/31 02:32:32;;;;;;;;;;;;;;;21.15;55.18;99978.38;1087813;54;19942;-81
2022/08/31 02:33:33;;;;;;;;;;;;;;;21.14;56.06;99980.25;1090245;46;19962;-81
2022/08/31 02:34:39;;;;;;;;;;;;;;;21.06;56.02;99982.41;1087875;54;19950;-82
2022/08/31 02:35:41;;;;;;;;;;;;;;;21.18;55.23;99976.06;1087811;54;20893;-81
2022/08/31 02:36:46;;;;;;;;;;;;;;;21.26;54.91;99974.97;1087882;54;19949;-82
2022/08/31 02:37:47;;;;;;;;;;;;;;;21.27;55.41;99982.06;1087892;54;19942;-81
2022/08/31 02:38:50;;;;;;;;;;;;;;;21.10;56.16;99979.03;1087844;54;19954;-81
2022/08/31 02:39:52;;;;;;;;;;;;;;;21.14;55.74;99980.25;1087816;54;19935;-81
2022/08/31 02:40:55;;;;;;;;;;;;;;;21.11;56.17;99983.38;1087829;54;20583;-81
2022/08/31 02:41:59;;;;;;;;;;;;;;;21.16;55.59;99980.06;1088288;39;20471;-82
2022/08/31 02:43:03;;;;;;;;;;;;;;;21.23;55.57;99983.56;1087870;54;19950;-81
2022/08/31 02:44:04;;;;;;;;;;;;;;;21.26;55.19;99985.81;1087771;54;19934;-82
2022/08/31 02:45:09;;;;;;;;;;;;;;;21.31;54.96;99977.03;1087855;54;19998;-82
2022/08/31 02:46:10;;;;;;;;;;;;;;;21.20;55.92;99981.28;1087811;54;20642;-82
2022/08/31 02:47:13;;;;;;;;;;;;;;;21.21;55.49;99979.41;1087871;54;19943;-79
2022/08/31 02:48:15;;;;;;;;;;;;;;;21.18;55.81;99977.94;1087877;54;19939;-82
2022/08/31 02:49:20;;;;;;;;;;;;;;;21.18;56.04;99980.66;1087871;54;19957;-81
2022/08/31 02:50:21;;;;;;;;;;;;;;;21.26;55.25;99974.97;1087918;54;19949;-82
2022/08/31 02:51:25;;;;;;;;;;;;;;;21.22;55.83;99976.47;1087864;54;19949;-82
2022/08/31 02:52:26;;;;;;;;;;;;;;;21.28;55.07;99972.03;1087827;54;19965;-82
2022/08/31 02:53:30;;;;;;;;;;;;;;;21.31;54.96;99972.44;1087820;54;19954;-81
2022/08/31 02:54:31;;;;;;;;;;;;;;;21.28;55.24;99980.19;1087812;54;19966;-80
2022/08/31 02:55:34;;;;;;;;;;;;;;;21.17;55.75;99981.69;1087820;54;19943;-82
2022/08/31 02:56:36;;;;;;;;;;;;;;;21.19;55.78;99979.59;1088602;47;19946;-82
2022/08/31 02:57:42;;;;;;;;;;;;;;;21.25;55.02;99973.31;1088554;39;20253;-81
2022/08/31 02:58:43;;;;;;;;;;;;;;;21.29;54.95;99976.44;1087996;54;19945;-82
2022/08/31 02:59:47;;;;;;;;;;;;;;;21.33;54.63;99981.22;1088032;54;19930;-82
2022/08/31 03:00:48;;;;;;;;;;;;;;;21.40;54.63;99977.63;1088099;54;19951;-83
2022/08/31 03:01:52;;;;;;;;;;;;;;;21.41;54.49;99984.72;1088031;47;19939;-81
2022/08/31 03:02:54;;;;;;;;;;;;;;;21.42;54.29;99981.78;1087966;54;19943;-83
2022/08/31 03:03:59;;;;;;;;;;;;;;;21.44;53.95;99978.88;1087868;54;19934;-82
2022/08/31 03:05:01;;;;;;;;;;;;;;;21.45;53.85;99980.50;1087772;54;19937;-81
2022/08/31 03:06:05;;;;;;;;;;;;;;;21.44;54.15;99976.13;1087891;54;19954;-82
2022/08/31 03:07:06;;;;;;;;;;;;;;;21.45;54.11;99972.34;1087825;54;19942;-81
2022/08/31 03:08:10;;;;;;;;;;;;;;;21.47;53.83;99971.09;1087385;54;19942;-82
2022/08/31 03:09:11;;;;;;;;;;;;;;;21.49;53.78;99973.59;1087779;54;19942;-80
2022/08/31 03:10:15;;;;;;;;;;;;;;;21.45;54.11;99972.34;1087877;54;20073;-81
2022/08/31 03:11:17;;;;;;;;;;;;;;;21.42;54.38;99978.25;1088172;54;19947;-82
2022/08/31 03:12:21;;;;;;;;;;;;;;;21.41;54.45;99976.56;1088203;54;19947;-82
2022/08/31 03:13:24;;;;;;;;;;;;;;;21.40;54.71;99977.63;1088210;54;19950;-82
2022/08/31 03:14:28;;;;;;;;;;;;;;;21.34;54.65;99972.00;1088106;54;20814;-79
2022/08/31 03:15:30;;;;;;;;;;;;;;;21.34;55.50;99979.31;1088092;54;19949;-82
2022/08/31 03:16:34;;;;;;;;;;;;;;;21.26;55.86;99977.69;1088178;54;20006;-82
2022/08/31 03:17:35;;;;;;;;;;;;;;;21.19;55.90;99975.00;1088144;54;19954;-82
2022/08/31 03:18:39;;;;;;;;;;;;;;;21.17;56.47;99971.66;1088123;54;19942;-82
2022/08/31 03:19:42;;;;;;;;;;;;;;;21.17;56.34;99977.09;1088075;54;19944;-81
2022/08/31 03:20:44;;;;;;;;;;;;;;;21.19;56.08;99979.59;1088067;54;19927;-81
2022/08/31 03:21:47;;;;;;;;;;;;;;;21.19;56.37;99974.16;1092758;39;20960;-81
2022/08/31 03:22:49;;;;;;;;;;;;;;;21.20;56.18;99981.28;1088054;54;19942;-82
2022/08/31 03:23:53;;;;;;;;;;;;;;;21.22;56.59;99979.19;1090634;39;20597;-84
2022/08/31 03:24:55;;;;;;;;;;;;;;;21.13;57.80;99975.03;1088050;54;19943;-81
2022/08/31 03:25:58;;;;;;;;;;;;;;;21.08;58.54;99975.69;1088153;54;19942;-81
2022/08/31 03:26:59;;;;;;;;;;;;;;;20.97;59.07;99982.63;1088160;54;19930;-77
2022/08/31 03:28:03;;;;;;;;;;;;;;;20.92;59.43;99979.72;1088111;54;20680;-82
2022/08/31 03:29:07;;;;;;;;;;;;;;;20.89;60.34;99974.72;1088087;54;19942;-83
2022/08/31 03:30:13;;;;;;;;;;;;;;;20.84;60.52;99975.34;1087989;54;19998;-82
2022/08/31 03:31:14;;;;;;;;;;;;;;;20.86;60.17;99973.25;1088212;54;19927;-81
2022/08/31 03:32:18;;;;;;;;;;;;;;;20.87;60.01;99969.50;1088090;54;19942;-82
2022/08/31 03:33:19;;;;;;;;;;;;;;;20.90;59.95;99976.38;1088061;54;19942;-82
2022/08/31 03:34:22;;;;;;;;;;;;;;;20.90;59.94;99978.28;1088101;54;19942;-82
2022/08/31 03:35:24;;;;;;;;;;;;;;;20.86;60.68;99980.59;1088068;54;19930;-82
2022/08/31 03:36:28;;;;;;;;;;;;;;;20.81;61.04;99973.09;1088205;46;19942;-82
2022/08/31 03:37:29;;;;;;;;;;;;;;;20.79;61.71;99982.47;1088083;54;19942;-82
2022/08/31 03:38:32;;;;;;;;;;;;;;;20.76;61.55;99975.59;1088118;54;19934;-82
2022/08/31 03:39:34;;;;;;;;;;;;;;;20.73;61.64;99974.13;1088065;54;19957;-83
2022/08/31 03:40:37;;;;;;;;;;;;;;;20.72;61.93;99974.34;1088029;54;19965;-82
2022/08/31 03:41:38;;;;;;;;;;;;;;;20.72;61.38;99969.72;1088112;54;19942;-81
2022/08/31 03:42:43;;;;;;;;;;;;;;;20.66;61.69;99970.59;1089453;39;20561;-81
2022/08/31 03:43:44;;;;;;;;;;;;;;;20.59;62.03;99967.06;1088085;54;19926;-82
2022/08/31 03:44:51;;;;;;;;;;;;;;;20.56;62.53;99971.00;1087940;54;19943;-83
2022/08/31 03:47:00;;;;;;;;;;;;;;;20.50;62.52;99973.75;1088875;54;19950;-79
2022/08/31 03:58:36;;;;;;;;;;;;;;;20.54;60.68;99984.00;1076926;54;19931;31
2022/08/31 04:00:56;;;;;;;;;;;;;;;20.64;60.13;99978.09;1077539;54;19942;31
2022/08/31 04:06:15;;;;;;;;;;;;;;;20.72;58.38;99975.16;1088816;54;20102;-81
2022/08/31 04:07:17;;;;;;;;;;;;;;;20.68;57.68;99979.34;1088925;54;19919;-85
2022/08/31 04:10:27;;;;;;;;;;;;;;;20.69;56.70;99978.28;1088844;54;19934;-84
2022/08/31 04:17:51;;;;;;;;;;;;;;;20.75;55.02;99986.69;1077511;54;19942;31
2022/08/31 04:18:58;;;;;;;;;;;;;;;20.79;54.88;99987.91;1087592;54;19935;31
2022/08/31 04:30:43;;;;;;;;;;;;;;;20.44;53.20;99993.59;1088763;54;19933;-83
2022/08/31 04:31:44;;;;;;;;;;;;;;;20.40;53.28;99994.00;1088591;54;19950;-82
2022/08/31 04:38:02;;;;;;;;;;;;;;;20.26;53.58;100003.22;1088408;54;19938;-85
2022/08/31 04:39:04;;;;;;;;;;;;;;;20.19;53.55;100002.41;1089695;46;19966;-82
2022/08/31 04:52:49;;;;;;;;;;;;;;;20.23;53.50;100019.91;1088150;54;19942;-80
2022/08/31 04:53:56;;;;;;;;;;;;;;;20.20;53.56;100012.22;1088231;54;19945;-77
2022/08/31 04:54:57;;;;;;;;;;;;;;;20.18;53.33;100017.81;1088209;54;19950;-78
2022/08/31 04:56:01;;;;;;;;;;;;;;;20.27;53.42;100021.19;1088212;54;20567;-79
2022/08/31 04:57:02;;;;;;;;;;;;;;;20.20;53.29;100020.34;1088118;54;20012;-78
2022/08/31 04:58:06;;;;;;;;;;;;;;;20.19;53.30;100024.09;1088275;54;19999;-81
2022/08/31 04:59:08;;;;;;;;;;;;;;;20.17;53.18;100015.34;1088568;54;19943;-80
2022/08/31 05:01:16;;;;;;;;;;;;;;;20.11;53.48;100022.44;1088172;54;19943;-85
2022/08/31 05:08:45;;;;;;;;;;;;;;;20.36;53.31;100028.06;1076660;54;19946;31
2022/08/31 05:09:53;;;;;;;;;;;;;;;20.38;53.06;100033.28;1081556;54;20951;-86
2022/08/31 05:10:54;;;;;;;;;;;;;;;20.32;52.67;100034.94;1089404;46;19947;-85
2022/08/31 05:12:00;;;;;;;;;;;;;;;20.37;52.85;100031.59;1089688;39;20577;-83
2022/08/31 05:14:08;;;;;;;;;;;;;;;20.25;52.92;100036.84;1087806;54;19942;-79
2022/08/31 05:25:53;;;;;;;;;;;;;;;20.16;53.40;100051.66;1077090;54;20497;-83
2022/08/31 05:26:55;;;;;;;;;;;;;;;20.10;53.60;100054.16;1088442;54;19957;-82
2022/08/31 05:27:59;;;;;;;;;;;;;;;20.09;53.36;100055.19;1088570;54;19942;-82
2022/08/31 05:30:06;;;;;;;;;;;;;;;19.97;53.64;100047.88;1088107;54;19922;-83
2022/08/31 05:35:26;;;;;;;;;;;;;;;20.09;53.50;100057.91;1076423;54;21150;31
2022/08/31 05:48:05;;;;;;;;;;;;;;;20.26;53.78;100068.34;1088056;54;19942;-81
2022/08/31 05:49:07;;;;;;;;;;;;;;;20.25;53.75;100061.25;1087659;54;19943;-81
2022/08/31 05:50:11;;;;;;;;;;;;;;;20.23;53.79;100064.19;1087675;54;20893;-81
2022/08/31 05:51:14;;;;;;;;;;;;;;;20.27;53.63;100067.31;1087967;54;19942;-80
2022/08/31 05:52:18;;;;;;;;;;;;;;;20.26;53.63;100052.91;1087622;54;20976;-83
2022/08/31 05:53:19;;;;;;;;;;;;;;;20.33;53.37;100065.66;1088014;54;19942;-79
2022/08/31 05:54:23;;;;;;;;;;;;;;;20.36;53.06;100062.50;1088031;54;19943;-80
2022/08/31 05:55:24;;;;;;;;;;;;;;;20.32;53.43;100062.09;1087996;54;19935;-81
2022/08/31 05:56:29;;;;;;;;;;;;;;;20.24;53.81;100071.28;1088057;54;19954;-79
2022/08/31 05:57:30;;;;;;;;;;;;;;;20.25;53.88;100069.41;1087972;54;19965;-81
2022/08/31 05:58:35;;;;;;;;;;;;;;;20.18;53.97;100066.66;1087769;54;20953;-81
2022/08/31 05:59:37;;;;;;;;;;;;;;;20.18;53.73;100065.84;1087928;54;20571;-81
2022/08/31 06:00:41;;;;;;;;;;;;;;;20.16;53.96;100070.66;1087990;54;19989;-82
2022/08/31 06:01:43;;;;;;;;;;;;;;;20.10;54.37;100077.72;1087980;54;19949;-83
2022/08/31 06:45:45;;;;;;;;;;;;;;;20.27;54.07;100086.31;1087490;54;19934;-83
2022/08/31 06:46:46;;;;;;;;;;;;;;;20.29;54.22;100076.09;1087828;54;20810;-82
2022/08/31 06:47:50;;;;;;;;;;;;;;;20.25;54.12;100085.69;1088046;47;20538;-83
2022/08/31 06:48:52;;;;;;;;;;;;;;;20.18;54.77;100082.97;1087752;54;19974;-83
2022/08/31 06:49:56;;;;;;;;;;;;;;;20.14;54.65;100086.28;1087330;54;19951;-81
2022/08/31 06:50:58;;;;;;;;;;;;;;;20.16;54.76;100084.22;1087245;54;19951;-83
2022/08/31 06:52:02;;;;;;;;;;;;;;;20.17;54.42;100088.59;1087578;54;19950;-83
2022/08/31 06:53:03;;;;;;;;;;;;;;;20.22;54.40;100086.94;1087649;54;19954;-84
2022/08/31 06:54:08;;;;;;;;;;;;;;;20.24;54.73;100090.28;1088041;39;20325;-80
2022/08/31 06:55:10;;;;;;;;;;;;;;;20.29;54.84;100094.25;1087158;54;19943;-83
2022/08/31 06:56:14;;;;;;;;;;;;;;;20.28;54.49;100090.72;1087936;39;20446;-81
2022/08/31 06:57:16;;;;;;;;;;;;;;;20.30;54.74;100101.34;1087249;54;19947;-80
2022/08/31 06:58:19;;;;;;;;;;;;;;;20.28;55.11;100093.41;1093631;39;20254;-84
2022/08/31 06:59:23;;;;;;;;;;;;;;;20.26;55.12;100103.66;1087919;39;20159;-81
2022/08/31 07:00:24;;;;;;;;;;;;;;;20.25;55.08;100099.25;1087974;47;19927;-87
2022/08/31 07:01:34;;;;;;;;;;;;;;;20.30;54.59;100102.19;1085347;39;20325;-82
2022/08/31 07:03:54;;;;;;;;;;;;;;;20.20;54.93;100096.34;1086930;54;19943;-80
2022/08/31 07:04:58;;;;;;;;;;;;;;;20.22;54.90;100100.50;1086549;54;20741;-78
2022/08/31 07:06:03;;;;;;;;;;;;;;;20.27;55.08;100102.59;1084898;54;19998;-80
2022/08/31 07:07:10;;;;;;;;;;;;;;;20.25;55.50;100102.81;1086411;54;19946;-78
2022/08/31 07:08:11;;;;;;;;;;;;;;;20.23;54.85;100095.91;1087615;47;19969;-80
2022/08/31 07:09:16;;;;;;;;;;;;;;;20.16;55.29;100093.22;1087275;47;20656;-81
2022/08/31 07:10:18;;;;;;;;;;;;;;;20.02;55.29;100088.78;1086678;54;19969;-81
2022/08/31 07:11:23;;;;;;;;;;;;;;;19.98;55.31;100088.38;1087086;54;20004;-82
2022/08/31 07:12:25;;;;;;;;;;;;;;;19.94;55.74;100092.53;1089909;47;19962;-84
2022/08/31 07:13:29;;;;;;;;;;;;;;;19.98;55.71;100084.84;1086786;54;19951;-79
2022/08/31 07:14:30;;;;;;;;;;;;;;;19.91;55.81;100082.09;1087058;54;19951;-82
2022/08/31 07:15:34;;;;;;;;;;;;;;;19.89;55.56;100095.84;1086825;54;19951;-85
2022/08/31 07:16:41;;;;;;;;;;;;;;;19.86;55.76;100090.84;1087775;54;19950;-81
2022/08/31 07:17:45;;;;;;;;;;;;;;;19.96;55.72;100093.16;1087777;54;19951;-83
2022/08/31 07:18:46;;;;;;;;;;;;;;;19.99;55.95;100090.03;1087780;54;19943;-84
2022/08/31 07:19:50;;;;;;;;;;;;;;;19.97;55.91;100086.69;1087800;54;19943;-84
2022/08/31 07:20:52;;;;;;;;;;;;;;;20.06;55.44;100090.88;1087640;54;19958;-84
2022/08/31 07:21:57;;;;;;;;;;;;;;;20.18;55.17;100093.81;1087734;54;19949;-83
2022/08/31 07:22:58;;;;;;;;;;;;;;;20.15;55.53;100093.41;1087515;54;19953;-82
2022/08/31 07:24:04;;;;;;;;;;;;;;;20.17;55.50;100096.75;1086663;54;19950;-80
2022/08/31 07:25:06;;;;;;;;;;;;;;;20.16;55.46;100103.22;1086792;54;19970;-84
2022/08/31 07:26:12;;;;;;;;;;;;;;;20.18;55.88;100098.41;1086974;54;19950;-81
2022/08/31 07:27:17;;;;;;;;;;;;;;;20.13;55.82;100092.75;1086452;54;19946;-82
2022/08/31 07:28:18;;;;;;;;;;;;;;;19.99;55.91;100095.47;1087273;47;20006;-86
2022/08/31 07:29:23;;;;;;;;;;;;;;;19.89;56.13;100093.13;1086410;54;19999;-79
2022/08/31 07:30:27;;;;;;;;;;;;;;;19.95;56.31;100094.19;1088692;39;20551;-80
2022/08/31 07:31:36;;;;;;;;;;;;;;;19.96;56.47;100090.44;1087299;54;19977;-83
2022/08/31 07:32:42;;;;;;;;;;;;;;;19.90;56.53;100100.22;1087755;54;19946;-83
2022/08/31 07:33:44;;;;;;;;;;;;;;;19.88;56.49;100094.19;1087882;47;19938;-87
2022/08/31 07:34:48;;;;;;;;;;;;;;;19.93;56.60;100090.88;1087866;54;19942;-83
2022/08/31 07:35:49;;;;;;;;;;;;;;;19.85;56.77;100099.16;1087605;54;19938;-86
2022/08/31 07:42:10;;;;;;;;;;;;;;;19.89;56.79;100101.28;1086219;54;19954;-80
2022/08/31 07:43:14;;;;;;;;;;;;;;;19.98;56.58;100103.81;1087336;47;19958;-82
2022/08/31 07:44:17;;;;;;;;;;;;;;;20.02;56.94;100102.34;1087421;54;19950;-81
2022/08/31 07:45:23;;;;;;;;;;;;;;;20.05;56.54;100101.94;1088371;47;19943;-81
2022/08/31 07:46:28;;;;;;;;;;;;;;;20.14;56.16;100102.56;1087673;54;19954;-84
2022/08/31 07:47:33;;;;;;;;;;;;;;;20.18;56.22;100103.84;1087725;54;19945;-85
2022/08/31 07:48:38;;;;;;;;;;;;;;;20.08;56.31;100110.50;1085244;54;19961;-78
2022/08/31 07:49:46;;;;;;;;;;;;;;;19.98;56.64;100103.81;1084826;54;19969;-77
2022/08/31 07:50:47;;;;;;;;;;;;;;;19.90;56.87;100110.25;1084827;54;19947;-80
2022/08/31 07:51:52;;;;;;;;;;;;;;;19.82;57.03;100110.41;1086329;54;19954;-83